Time;durP1;ratioP1;P1;durP2;ratioP2;P2;SDS_P1;SDS_P2;PMS_P1;PMS_P2;Temp;Humidity;BMP_temperature;BMP_pressure;BME280_temperature;BME280_humidity;BME280_pressure;Samples;Min_cycle;Max_cycle;Signal;HPM_P1;HPM_P2
2023/06/22 00:00:13;;;;;;;12.40;11.33;;;;;;;16.26;100.00;97220.84;4916881;28;20889;-66
2023/06/22 00:02:41;;;;;;;11.23;10.17;;;;;;;16.26;100.00;97228.06;4971922;28;20937;-65
2023/06/22 00:05:09;;;;;;;11.60;10.47;;;;;;;16.25;100.00;97215.75;4965811;28;20221;-66
2023/06/22 00:07:36;;;;;;;10.80;10.00;;;;;;;16.23;100.00;97210.59;4958845;28;20337;-66
2023/06/22 00:10:05;;;;;;;11.67;10.67;;;;;;;16.26;100.00;97204.81;4934231;28;21350;-64
2023/06/22 00:12:34;;;;;;;12.07;11.17;;;;;;;16.27;100.00;97211.78;4943714;28;20577;-66
2023/06/22 00:15:02;;;;;;;11.90;10.83;;;;;;;16.27;100.00;97216.34;4940311;28;20488;-68
2023/06/22 00:17:29;;;;;;;12.27;11.37;;;;;;;16.29;100.00;97215.09;4970313;28;20210;-67
2023/06/22 00:19:58;;;;;;;12.27;11.27;;;;;;;16.27;100.00;97194.94;4967844;28;20225;-66
2023/06/22 00:22:28;;;;;;;12.13;11.23;;;;;;;16.23;100.00;97183.88;4955083;28;20237;-66
2023/06/22 00:24:57;;;;;;;12.23;11.17;;;;;;;16.19;100.00;97177.34;4960534;28;20504;-66
2023/06/22 00:27:25;;;;;;;12.83;11.67;;;;;;;16.13;100.00;97171.03;4918462;28;20221;-66
2023/06/22 00:29:54;;;;;;;11.50;10.53;;;;;;;16.09;100.00;97169.00;4949623;28;20201;-65
2023/06/22 00:32:21;;;;;;;11.47;10.57;;;;;;;16.02;100.00;97175.22;4933966;28;20210;-67
2023/06/22 00:34:50;;;;;;;11.70;10.80;;;;;;;16.05;100.00;97179.31;4966486;28;20240;-67
2023/06/22 00:37:18;;;;;;;11.60;10.53;;;;;;;15.88;100.00;97171.84;4969533;28;20201;-67
2023/06/22 00:39:46;;;;;;;11.43;10.47;;;;;;;15.99;100.00;97182.84;4956506;28;20284;-67
2023/06/22 00:42:14;;;;;;;11.60;10.50;;;;;;;15.97;100.00;97176.91;4916748;28;21890;-66
2023/06/22 00:44:41;;;;;;;10.53;9.73;;;;;;;15.88;100.00;97171.84;4955153;28;20298;-66
2023/06/22 00:47:12;;;;;;;12.07;10.97;;;;;;;15.96;100.00;97175.28;4940063;28;20795;-66
2023/06/22 00:49:40;;;;;;;10.93;10.03;;;;;;;15.99;100.00;97172.16;4961463;28;20691;-66
2023/06/22 00:52:09;;;;;;;11.47;10.57;;;;;;;16.01;100.00;97170.09;4968141;28;20954;-66
2023/06/22 00:54:36;;;;;;;11.83;10.87;;;;;;;16.03;100.00;97165.34;4954705;28;20233;-68
2023/06/22 00:57:05;;;;;;;12.37;11.27;;;;;;;16.02;100.00;97164.53;4964540;28;20225;-67
2023/06/22 00:59:33;;;;;;;13.13;12.13;;;;;;;16.01;100.00;97159.41;4917840;28;20251;-67
2023/06/22 01:02:01;;;;;;;13.40;12.30;;;;;;;16.08;100.00;97164.69;4951971;28;20416;-66
2023/06/22 01:04:35;;;;;;;12.53;11.40;;;;;;;15.98;100.00;97149.16;4948472;28;20265;-67
2023/06/22 01:07:10;;;;;;;12.30;11.20;;;;;;;16.14;100.00;97175.34;4965351;28;20914;-68
2023/06/22 01:09:44;;;;;;;12.73;11.73;;;;;;;16.19;100.00;97174.66;4949014;28;20237;-67
2023/06/22 01:12:12;;;;;;;13.50;12.37;;;;;;;16.14;100.00;97172.66;4968350;28;20289;-66
2023/06/22 01:14:43;;;;;;;12.83;11.83;;;;;;;16.17;100.00;97171.41;4909693;28;20257;-66
2023/06/22 01:17:15;;;;;;;15.63;14.27;;;;;;;16.12;100.00;97177.41;4958209;28;20210;-65
2023/06/22 01:19:47;;;;;;;15.23;13.63;;;;;;;16.13;100.00;97168.38;4939604;28;20240;-66
2023/06/22 01:22:16;;;;;;;16.43;14.33;;;;;;;16.08;100.00;97160.16;4969362;28;20291;-66
2023/06/22 01:24:53;;;;;;;17.33;15.63;;;;;;;16.12;100.00;97166.72;4924546;28;20383;-66
2023/06/22 01:27:34;;;;;;;19.07;17.20;;;;;;;16.05;100.00;97156.09;4971963;28;20205;-66
2023/06/22 01:30:05;;;;;;;18.07;15.10;;;;;;;16.05;100.00;97157.94;4919998;28;20510;-67
2023/06/22 01:32:35;;;;;;;17.17;15.53;;;;;;;15.95;100.00;97133.56;4945117;28;20712;-66
2023/06/22 01:35:06;;;;;;;15.67;14.27;;;;;;;16.03;100.00;97158.16;4940618;28;20217;-67
2023/06/22 01:37:35;;;;;;;15.07;13.77;;;;;;;15.97;100.00;97158.22;4970644;28;20252;-67
2023/06/22 01:40:04;;;;;;;15.90;14.27;;;;;;;15.90;100.00;97168.94;4964230;28;20785;-67
2023/06/22 01:42:32;;;;;;;14.07;12.77;;;;;;;15.89;100.00;97165.47;4968842;28;20230;-67
2023/06/22 01:45:01;;;;;;;13.83;12.63;;;;;;;15.82;100.00;97167.34;4908298;28;20704;-67
2023/06/22 01:47:30;;;;;;;12.80;11.80;;;;;;;15.79;100.00;97167.78;4944629;28;20265;-65
2023/06/22 01:49:59;;;;;;;14.27;13.07;;;;;;;15.77;100.00;97165.34;4944120;28;20221;-67
2023/06/22 01:52:27;;;;;;;13.03;11.93;;;;;;;15.75;100.00;97169.28;4969307;28;20207;-67
2023/06/22 01:54:54;;;;;;;14.50;13.30;;;;;;;15.78;100.00;97172.31;4948281;28;20341;-66
2023/06/22 01:57:22;;;;;;;12.87;11.73;;;;;;;15.75;100.00;97172.75;4967638;28;20205;-66
2023/06/22 01:59:54;;;;;;;13.87;12.83;;;;;;;15.73;100.00;97172.16;4968492;28;20206;-66
2023/06/22 02:02:26;;;;;;;14.23;12.87;;;;;;;15.73;100.00;97171.34;4896034;28;21493;-66
2023/06/22 02:04:59;;;;;;;14.00;12.80;;;;;;;15.77;100.00;97175.22;4946215;28;20968;-67
2023/06/22 02:07:32;;;;;;;14.10;12.97;;;;;;;15.76;100.00;97170.91;4969509;28;20213;-67
2023/06/22 02:10:00;;;;;;;14.43;13.07;;;;;;;15.67;100.00;97166.84;4975486;28;20194;-66
2023/06/22 02:12:29;;;;;;;15.43;14.07;;;;;;;15.71;100.00;97170.72;4954167;28;20210;-67
2023/06/22 02:15:00;;;;;;;14.10;13.00;;;;;;;15.71;100.00;97174.22;4968893;28;20209;-65
2023/06/22 02:17:28;;;;;;;14.73;13.53;;;;;;;15.66;100.00;97163.38;4914871;28;20617;-66
2023/06/22 02:19:57;;;;;;;14.93;13.73;;;;;;;15.72;100.00;97180.34;4954116;28;20209;-67
2023/06/22 02:22:25;;;;;;;15.80;14.20;;;;;;;15.66;100.00;97184.75;4970554;28;20866;-68
2023/06/22 02:24:52;;;;;;;13.93;12.70;;;;;;;15.66;100.00;97190.06;4970834;28;20301;-66
2023/06/22 02:27:20;;;;;;;14.00;12.80;;;;;;;15.68;100.00;97182.66;4945159;28;20217;-67
2023/06/22 02:29:48;;;;;;;13.93;12.83;;;;;;;15.67;100.00;97190.88;4975959;28;20233;-67
2023/06/22 02:32:17;;;;;;;14.17;12.97;;;;;;;15.58;100.00;97182.34;4922175;28;20245;-68
2023/06/22 02:34:47;;;;;;;14.33;13.13;;;;;;;15.57;100.00;97181.50;4944886;28;20321;-68
2023/06/22 02:37:16;;;;;;;14.77;13.47;;;;;;;15.63;100.00;97188.66;4937350;28;20209;-65
2023/06/22 02:39:44;;;;;;;14.87;13.40;;;;;;;15.62;100.00;97189.69;4972780;28;20205;-66
2023/06/22 02:42:12;;;;;;;13.60;12.33;;;;;;;15.57;100.00;97181.50;4960607;28;20232;-65
2023/06/22 02:44:40;;;;;;;13.97;12.83;;;;;;;15.59;100.00;97174.09;4966076;28;20233;-67
2023/06/22 02:47:12;;;;;;;14.50;13.20;;;;;;;15.58;100.00;97183.13;4944389;28;20260;-62
2023/06/22 02:49:41;;;;;;;14.27;13.10;;;;;;;15.52;100.00;97178.66;4953051;28;20221;-66
2023/06/22 02:52:09;;;;;;;13.93;12.73;;;;;;;15.51;100.00;97173.53;4944831;28;20209;-65
2023/06/22 02:54:38;;;;;;;15.77;14.27;;;;;;;15.49;100.00;97173.75;4969622;28;20623;-67
2023/06/22 02:57:06;;;;;;;16.33;14.23;;;;;;;15.40;100.00;97170.53;4960627;28;20206;-66
2023/06/22 02:59:34;;;;;;;14.17;12.80;;;;;;;15.45;100.00;97170.69;4961726;28;20386;-66
2023/06/22 03:02:02;;;;;;;15.43;13.87;;;;;;;15.47;100.00;97175.81;4972472;28;20253;-66
2023/06/22 03:04:31;;;;;;;15.97;14.47;;;;;;;15.46;100.00;97168.84;4911901;28;20387;-65
2023/06/22 03:07:00;;;;;;;16.33;14.83;;;;;;;15.45;100.00;97167.22;4945586;28;20214;-67
2023/06/22 03:09:28;;;;;;;16.70;15.07;;;;;;;15.53;100.00;97169.63;4972960;28;20454;-67
2023/06/22 03:11:58;;;;;;;16.37;14.67;;;;;;;15.49;100.00;97171.91;4974199;28;20210;-67
2023/06/22 03:14:26;;;;;;;17.60;16.07;;;;;;;15.55;100.00;97167.56;4933356;28;20343;-66
2023/06/22 03:16:53;;;;;;;16.97;15.37;;;;;;;15.55;100.00;97166.75;4967843;28;20218;-66
2023/06/22 03:19:21;;;;;;;17.43;15.90;;;;;;;15.58;100.00;97167.13;4916076;28;20646;-67
2023/06/22 03:21:49;;;;;;;19.13;17.43;;;;;;;15.63;100.00;97169.94;4949450;28;20252;-66
2023/06/22 03:24:17;;;;;;;21.20;16.77;;;;;;;15.74;100.00;97162.28;4961217;28;20279;-64
2023/06/22 03:26:46;;;;;;;16.93;15.53;;;;;;;15.78;100.00;97169.63;4962572;28;20311;-68
2023/06/22 03:29:15;;;;;;;29.73;16.83;;;;;;;15.83;100.00;97163.66;4947207;28;20538;-66
2023/06/22 03:31:43;;;;;;;19.70;17.07;;;;;;;15.85;100.00;97160.75;4957181;28;20206;-66
2023/06/22 03:34:11;;;;;;;19.10;16.50;;;;;;;15.84;100.00;97170.63;4930409;28;20224;-66
2023/06/22 03:36:39;;;;;;;25.43;15.73;;;;;;;15.83;100.00;97171.66;4935231;28;20218;-67
2023/06/22 03:39:06;;;;;;;18.87;15.77;;;;;;;15.85;100.00;97172.25;4967090;28;20218;-66
2023/06/22 03:41:34;;;;;;;36.73;16.87;;;;;;;15.91;100.00;97175.97;4968059;28;20236;-65
2023/06/22 03:44:02;;;;;;;30.83;16.40;;;;;;;15.91;100.00;97183.97;4968041;28;20582;-67
2023/06/22 03:46:31;;;;;;;16.00;14.53;;;;;;;15.99;100.00;97190.88;4954083;28;20393;-66
2023/06/22 03:48:59;;;;;;;17.97;15.57;;;;;;;16.07;100.00;97185.25;4974207;28;20986;-67
2023/06/22 03:51:27;;;;;;;17.23;13.73;;;;;;;16.03;100.00;97186.72;4920532;28;20452;-66
2023/06/22 03:53:55;;;;;;;14.93;13.53;;;;;;;15.95;100.00;97184.34;4942432;28;20932;-66
2023/06/22 03:56:23;;;;;;;14.87;13.40;;;;;;;15.90;100.00;97196.50;4967996;28;20213;-67
2023/06/22 03:58:50;;;;;;;13.90;12.80;;;;;;;15.98;100.00;97197.25;4968594;28;20208;-65
2023/06/22 04:01:19;;;;;;;13.90;12.80;;;;;;;15.98;100.00;97200.75;4947240;28;20246;-66
2023/06/22 04:03:49;;;;;;;14.43;13.13;;;;;;;15.99;100.00;97204.22;4963669;28;20939;-65
2023/06/22 04:06:17;;;;;;;15.47;14.07;;;;;;;16.02;100.00;97203.78;4911108;28;21680;-65
2023/06/22 04:08:48;;;;;;;15.03;13.73;;;;;;;16.09;100.00;97203.75;4946247;28;20233;-66
2023/06/22 04:11:15;;;;;;;17.03;15.33;;;;;;;16.12;100.00;97214.00;4963742;28;20194;-67
2023/06/22 04:13:43;;;;;;;30.57;16.43;;;;;;;16.20;100.00;97209.19;4963110;28;20222;-67
2023/06/22 04:16:10;;;;;;;23.30;15.57;;;;;;;16.17;100.00;97214.16;4962056;28;20293;-67
2023/06/22 04:18:38;;;;;;;19.03;15.60;;;;;;;16.26;100.00;97215.50;4951344;28;20368;-67
2023/06/22 04:21:12;;;;;;;16.37;14.60;;;;;;;16.37;100.00;97215.84;4942445;28;20210;-66
2023/06/22 04:23:40;;;;;;;21.70;14.90;;;;;;;16.34;100.00;97207.22;4972299;28;20225;-67
2023/06/22 04:26:07;;;;;;;25.27;14.70;;;;;;;16.40;100.00;97215.41;4939049;28;20288;-67
2023/06/22 04:28:35;;;;;;;14.53;13.13;;;;;;;16.47;100.00;97211.59;4943943;28;20209;-67
2023/06/22 04:31:03;;;;;;;15.10;13.70;;;;;;;16.41;100.00;97214.38;4970135;28;20652;-67
2023/06/22 04:33:30;;;;;;;14.87;13.43;;;;;;;16.65;100.00;97212.69;4947517;28;20230;-67
2023/06/22 04:35:58;;;;;;;14.50;13.00;;;;;;;16.57;100.00;97194.25;4961150;28;20368;-66
2023/06/22 04:38:27;;;;;;;13.63;12.50;;;;;;;16.75;100.00;97194.25;4914021;28;21192;-67
2023/06/22 04:40:55;;;;;;;13.87;12.77;;;;;;;16.75;100.00;97196.13;4920518;28;20264;-67
2023/06/22 04:43:22;;;;;;;14.20;12.93;;;;;;;16.93;100.00;97196.09;4968548;28;20229;-67
2023/06/22 04:45:52;;;;;;;13.67;12.33;;;;;;;16.92;100.00;97189.09;4963029;28;20264;-67
2023/06/22 04:48:19;;;;;;;13.40;12.30;;;;;;;17.09;100.00;97195.72;4960361;28;20284;-67
2023/06/22 04:50:47;;;;;;;13.70;12.57;;;;;;;17.21;100.00;97180.53;4966097;28;20218;-69
2023/06/22 04:53:15;;;;;;;12.97;11.90;;;;;;;17.39;100.00;97168.94;4914291;28;20298;-69
2023/06/22 04:55:46;;;;;;;13.50;12.40;;;;;;;17.18;100.00;97151.53;4946103;28;20937;-69
2023/06/22 04:58:14;;;;;;;12.70;11.70;;;;;;;17.34;100.00;97163.47;4963410;28;20198;-70
2023/06/22 05:00:44;;;;;;;11.63;10.60;;;;;;;17.44;100.00;97155.72;4965887;28;20647;-68
2023/06/22 05:03:12;;;;;;;12.07;11.10;;;;;;;17.55;100.00;97159.44;4968751;28;20225;-69
2023/06/22 05:05:46;;;;;;;12.97;11.87;;;;;;;17.56;100.00;97147.69;4961536;28;20209;-71
2023/06/22 05:08:17;;;;;;;12.83;11.63;;;;;;;17.50;100.00;97148.59;4947337;28;20332;-68
2023/06/22 05:10:49;;;;;;;11.73;10.63;;;;;;;17.55;100.00;97146.06;4930127;28;20265;-68
2023/06/22 05:13:31;;;;;;;11.87;10.87;;;;;;;17.48;100.00;97139.97;4962558;28;20545;-68
2023/06/22 05:16:01;;;;;;;11.70;10.80;;;;;;;17.46;100.00;97142.06;4968646;28;20208;-70
2023/06/22 05:18:30;;;;;;;12.93;11.93;;;;;;;17.49;100.00;97141.63;4961596;28;20300;-68
2023/06/22 05:20:59;;;;;;;12.43;11.53;;;;;;;17.54;100.00;97131.03;4948724;28;20679;-68
2023/06/22 05:23:27;;;;;;;11.70;10.80;;;;;;;17.69;100.00;97127.91;4963981;28;20222;-68
2023/06/22 05:25:57;;;;;;;12.40;11.30;;;;;;;17.87;100.00;97118.16;4914070;28;20210;-69
2023/06/22 05:28:26;;;;;;;12.00;11.10;;;;;;;17.94;100.00;97103.56;4942825;28;20538;-68
2023/06/22 05:30:54;;;;;;;10.90;10.10;;;;;;;18.26;100.00;97097.06;4961451;28;20843;-68
2023/06/22 05:33:22;;;;;;;11.33;10.43;;;;;;;18.32;100.00;97088.06;4969611;28;20233;-68
2023/06/22 05:35:49;;;;;;;11.17;10.27;;;;;;;18.36;100.00;97088.41;4953970;28;20297;-69
2023/06/22 05:38:17;;;;;;;11.80;11.00;;;;;;;18.56;100.00;97096.06;4971100;28;20259;-68
2023/06/22 05:40:45;;;;;;;11.73;10.63;;;;;;;18.73;100.00;97088.06;4909225;28;20719;-68
2023/06/22 05:43:14;;;;;;;12.43;11.53;;;;;;;18.75;100.00;97080.59;4944004;28;20712;-68
2023/06/22 05:45:41;;;;;;;11.13;10.33;;;;;;;18.97;100.00;97079.91;4971041;28;20490;-68
2023/06/22 05:48:09;;;;;;;12.00;11.07;;;;;;;19.04;100.00;97069.88;4972523;28;20233;-70
2023/06/22 05:50:37;;;;;;;9.90;9.13;;;;;;;19.13;100.00;97091.78;4944985;28;20213;-68
2023/06/22 05:53:06;;;;;;;10.70;9.70;;;;;;;19.24;100.00;97087.41;4969503;28;20280;-69
2023/06/22 05:55:34;;;;;;;10.90;9.90;;;;;;;19.43;100.00;97090.69;4967945;28;20209;-68
2023/06/22 05:58:03;;;;;;;10.37;9.57;;;;;;;19.60;100.00;97077.25;4896038;28;20214;-67
2023/06/22 06:00:32;;;;;;;10.67;9.87;;;;;;;19.69;100.00;97079.53;4969099;28;20498;-68
2023/06/22 06:03:03;;;;;;;10.90;9.90;;;;;;;19.78;100.00;97068.13;4964025;28;20251;-68
2023/06/22 06:05:31;;;;;;;10.93;10.20;;;;;;;19.90;100.00;97077.94;4969480;28;20466;-67
2023/06/22 06:07:59;;;;;;;10.23;9.23;;;;;;;19.94;100.00;97068.34;4953906;28;20209;-67
2023/06/22 06:10:27;;;;;;;10.90;10.00;;;;;;;20.18;100.00;97068.16;4960868;28;20384;-68
2023/06/22 06:12:55;;;;;;;10.43;9.63;;;;;;;20.24;100.00;97051.81;4901380;28;21572;-68
2023/06/22 06:15:23;;;;;;;10.63;9.87;;;;;;;20.24;100.00;97053.69;4947047;28;20264;-68
2023/06/22 06:17:53;;;;;;;9.40;8.77;;;;;;;20.47;100.00;97043.75;4969366;28;20287;-67
2023/06/22 06:20:23;;;;;;;10.10;9.40;;;;;;;20.70;100.00;97045.34;4961600;28;20492;-69
2023/06/22 06:22:51;;;;;;;9.23;8.53;;;;;;;20.87;100.00;97052.56;4952432;28;20234;-69
2023/06/22 06:25:21;;;;;;;11.17;10.27;;;;;;;20.66;100.00;97047.72;4969154;28;20236;-68
2023/06/22 06:27:51;;;;;;;9.03;8.37;;;;;;;20.94;100.00;97055.84;4919546;28;20356;-68
2023/06/22 06:30:19;;;;;;;11.27;9.50;;;;;;;21.20;100.00;97058.78;4946258;28;20848;-69
2023/06/22 06:32:48;;;;;;;9.13;8.43;;;;;;;21.36;100.00;97047.06;4968759;28;20206;-68
2023/06/22 06:35:17;;;;;;;9.77;8.87;;;;;;;21.57;100.00;97041.84;4965188;28;20209;-70
2023/06/22 06:37:46;;;;;;;9.00;8.20;;;;;;;21.52;100.00;97039.91;4946897;28;20217;-67
2023/06/22 06:40:14;;;;;;;8.80;7.90;;;;;;;21.67;100.00;97039.25;4970837;28;20221;-69
2023/06/22 06:42:44;;;;;;;9.17;8.47;;;;;;;21.77;100.00;97034.97;4914424;28;20328;-68
2023/06/22 06:45:13;;;;;;;9.07;8.27;;;;;;;21.92;100.00;97034.25;4950868;28;20214;-69
2023/06/22 06:47:40;;;;;;;8.17;7.47;;;;;;;21.93;100.00;97030.47;4967958;28;20757;-67
2023/06/22 06:50:09;;;;;;;7.93;7.33;;;;;;;22.12;100.00;97034.38;4967619;28;20216;-68
2023/06/22 06:52:38;;;;;;;7.73;7.20;;;;;;;22.18;100.00;97019.03;4958341;28;20293;-67
2023/06/22 06:55:09;;;;;;;8.10;7.53;;;;;;;22.23;100.00;97008.25;4975020;28;20225;-69
2023/06/22 06:57:37;;;;;;;8.47;7.73;;;;;;;22.43;100.00;97019.41;4910920;28;21081;-67
2023/06/22 07:00:10;;;;;;;9.10;8.20;;;;;;;22.54;100.00;97024.59;4948196;28;20210;-67
2023/06/22 07:02:38;;;;;;;7.67;7.07;;;;;;;22.64;100.00;97026.50;4973455;28;20273;-69
2023/06/22 07:05:07;;;;;;;8.30;7.47;;;;;;;22.56;100.00;97008.13;4965496;28;20201;-68
2023/06/22 07:07:35;;;;;;;7.57;6.87;;;;;;;22.73;100.00;97028.66;4965697;28;20483;-68
2023/06/22 07:10:07;;;;;;;7.10;6.60;;;;;;;22.77;100.00;97022.47;4960184;28;20228;-68
2023/06/22 07:12:35;;;;;;;8.47;7.77;;;;;;;22.68;100.00;97015.97;4971781;28;20458;-68
2023/06/22 07:15:04;;;;;;;7.73;7.13;;;;;;;22.91;100.00;97016.53;4912838;28;20407;-67
2023/06/22 07:17:31;;;;;;;8.53;7.50;;;;;;;23.14;100.00;97015.22;4943702;28;20470;-68
2023/06/22 07:19:59;;;;;;;9.53;7.83;;;;;;;23.34;100.00;97010.94;4972828;28;20658;-69
2023/06/22 07:22:27;;;;;;;8.07;7.27;;;;;;;23.31;100.00;97004.19;4972073;28;20709;-67
2023/06/22 07:24:54;;;;;;;7.50;6.80;;;;;;;23.45;100.00;97009.03;4950888;28;20295;-69
2023/06/22 07:27:24;;;;;;;7.43;6.97;;;;;;;23.47;100.00;96999.56;4962077;28;20213;-69
2023/06/22 07:29:52;;;;;;;6.53;6.03;;;;;;;23.52;100.00;96996.88;4917011;28;20220;-67
2023/06/22 07:32:19;;;;;;;7.70;7.10;;;;;;;23.52;100.00;96996.03;4948457;28;20692;-68
2023/06/22 07:34:47;;;;;;;7.70;6.93;;;;;;;23.58;100.00;96992.25;4969800;28;20651;-68
2023/06/22 07:37:15;;;;;;;7.33;6.73;;;;;;;23.64;100.00;96988.44;4964729;28;20205;-68
2023/06/22 07:39:43;;;;;;;8.00;6.53;;;;;;;23.63;100.00;96994.94;4953331;28;20834;-67
2023/06/22 07:42:11;;;;;;;7.70;7.00;;;;;;;23.82;100.00;96984.34;4973811;28;20213;-69
2023/06/22 07:44:40;;;;;;;7.70;7.00;;;;;;;23.77;100.00;96986.25;4917387;28;20330;-67
2023/06/22 07:47:08;;;;;;;6.80;6.40;;;;;;;23.93;100.00;96976.22;4963196;28;20301;-67
2023/06/22 07:49:36;;;;;;;7.40;6.80;;;;;;;24.20;100.00;96992.09;4948943;28;20721;-68
2023/06/22 07:52:04;;;;;;;6.77;6.07;;;;;;;24.32;100.00;96991.78;4971215;28;21310;-68
2023/06/22 07:54:33;;;;;;;7.67;7.03;;;;;;;24.41;100.00;96989.28;4954529;28;20368;-68
2023/06/22 07:57:01;;;;;;;7.43;6.90;;;;;;;24.46;100.00;96986.56;4963391;28;20206;-68
2023/06/22 07:59:29;;;;;;;7.80;7.20;;;;;;;24.55;100.00;96979.47;4964714;28;20629;-68
2023/06/22 08:01:58;;;;;;;10.67;7.00;;;;;;;24.52;100.00;96985.44;4922468;28;20214;-67
2023/06/22 08:04:27;;;;;;;10.27;6.53;;;;;;;24.63;100.00;96979.97;4945661;28;20524;-68
2023/06/22 08:06:55;;;;;;;7.00;6.40;;;;;;;24.69;100.00;96984.25;4963528;28;20806;-68
2023/06/22 08:09:24;;;;;;;7.73;7.03;;;;;;;24.85;100.00;96976.88;4963132;28;20336;-67
2023/06/22 08:11:52;;;;;;;6.97;6.47;;;;;;;24.90;100.00;96976.03;4955294;28;20222;-68
2023/06/22 08:14:20;;;;;;;7.40;6.70;;;;;;;25.03;100.00;96983.50;4971022;28;20221;-68
2023/06/22 08:16:47;;;;;;;7.60;6.70;;;;;;;25.17;100.00;96978.25;4910421;28;20209;-68
2023/06/22 08:19:17;;;;;;;6.97;6.47;;;;;;;25.19;100.00;96977.94;4948587;28;20208;-67
2023/06/22 08:21:45;;;;;;;6.73;6.23;;;;;;;25.31;100.00;96961.31;4971598;28;20205;-69
2023/06/22 08:24:13;;;;;;;7.93;7.23;;;;;;;25.46;100.00;96963.06;4971262;28;20237;-68
2023/06/22 08:26:41;;;;;;;7.53;6.77;;;;;;;25.51;100.00;96972.00;4953747;28;20293;-68
2023/06/22 08:29:09;;;;;;;7.93;7.23;;;;;;;25.65;100.00;96960.47;4964902;28;20217;-68
2023/06/22 08:31:36;;;;;;;8.00;6.83;;;;;;;25.78;100.00;96967.13;4912361;28;21293;-67
2023/06/22 08:34:04;;;;;;;11.70;7.63;;;;;;;25.83;100.00;96969.75;4968716;28;20237;-67
2023/06/22 08:36:37;;;;;;;6.90;6.30;;;;;;;25.71;100.00;96964.72;4946270;28;20443;-67
2023/06/22 08:39:05;;;;;;;6.70;6.20;;;;;;;25.64;100.00;96964.28;4971931;28;21284;-67
2023/06/22 08:41:32;;;;;;;6.57;5.97;;;;;;;25.80;100.00;96970.34;4948098;28;20370;-67
2023/06/22 08:44:00;;;;;;;6.13;5.53;;;;;;;25.89;100.00;96968.59;4963197;28;20776;-68
2023/06/22 08:46:33;;;;;;;6.50;6.00;;;;;;;26.03;100.00;96957.06;4915712;28;20905;-68
2023/06/22 08:49:01;;;;;;;6.57;6.03;;;;;;;26.28;100.00;96959.47;4970501;28;20234;-68
2023/06/22 08:51:29;;;;;;;7.13;6.57;;;;;;;26.32;100.00;96957.00;4943347;28;20276;-68
2023/06/22 08:53:58;;;;;;;6.70;6.10;;;;;;;26.44;100.00;96959.28;4965694;28;20241;-67
2023/06/22 08:56:26;;;;;;;7.10;6.50;;;;;;;26.70;100.00;96957.00;4963359;28;20275;-67
2023/06/22 08:58:53;;;;;;;8.20;7.40;;;;;;;26.85;100.00;96960.59;4954241;28;20604;-67
2023/06/22 09:01:24;;;;;;;7.67;6.67;;;;;;;26.79;100.00;96942.72;4963715;28;20218;-68
2023/06/22 09:03:57;;;;;;;6.90;6.30;;;;;;;26.66;100.00;96952.44;4916522;28;20252;-67
2023/06/22 09:06:25;;;;;;;6.80;6.10;;;;;;;26.55;100.00;96949.88;4944472;28;20224;-67
2023/06/22 09:08:53;;;;;;;7.70;5.73;;;;;;;26.66;100.00;96952.44;4972199;28;20245;-67
2023/06/22 09:11:22;;;;;;;6.97;6.27;;;;;;;26.97;100.00;96958.25;4970252;28;20236;-68
2023/06/22 09:13:50;;;;;;;5.87;5.40;;;;;;;27.15;100.00;96958.50;4949934;28;20632;-67
2023/06/22 09:16:18;;;;;;;9.17;6.87;;;;;;;27.06;100.00;96957.56;4961398;28;20268;-68
2023/06/22 09:18:47;;;;;;;7.90;6.67;;;;;;;27.27;100.00;96953.38;4918570;28;20763;-67
2023/06/22 09:21:15;;;;;;;7.30;6.80;;;;;;;27.33;100.00;96951.38;4960181;28;20246;-68
2023/06/22 09:23:43;;;;;;;6.40;5.80;;;;;;;27.30;100.00;96958.25;4959924;28;20233;-67
2023/06/22 09:26:11;;;;;;;6.63;6.13;;;;;;;27.35;100.00;96953.81;4960413;28;20252;-68
2023/06/22 09:28:39;;;;;;;6.90;6.20;;;;;;;27.34;100.00;96958.44;4967452;28;20507;-68
2023/06/22 09:31:07;;;;;;;10.13;6.37;;;;;;;27.43;100.00;96953.91;4955314;28;20671;-67
2023/06/22 09:33:35;;;;;;;7.00;6.00;;;;;;;27.52;100.00;96945.13;4962061;28;20308;-67
2023/06/22 09:36:05;;;;;;;7.17;6.47;;;;;;;27.19;100.00;96948.63;4919827;28;20209;-69
2023/06/22 09:38:32;;;;;;;6.87;6.03;;;;;;;27.34;100.00;96936.69;4943948;28;20795;-67
2023/06/22 09:41:00;;;;;;;7.80;7.00;;;;;;;27.41;100.00;96930.84;4960176;28;20763;-67
2023/06/22 09:43:28;;;;;;;6.80;6.13;;;;;;;27.63;100.00;96929.38;4965889;28;20306;-68
2023/06/22 09:45:57;;;;;;;7.00;6.40;;;;;;;27.58;99.15;96931.09;4956817;28;20280;-69
2023/06/22 09:48:25;;;;;;;6.17;5.77;;;;;;;27.85;100.00;96932.22;4965560;28;20205;-67
2023/06/22 09:50:53;;;;;;;6.17;5.67;;;;;;;28.10;99.63;96929.25;4912387;28;20229;-66
2023/06/22 09:53:21;;;;;;;7.37;6.23;;;;;;;28.19;99.43;96927.47;4944280;28;20233;-68
2023/06/22 09:55:49;;;;;;;7.10;6.57;;;;;;;28.21;94.39;96927.94;4970391;28;20982;-67
2023/06/22 09:58:16;;;;;;;7.40;6.57;;;;;;;28.18;93.85;96931.28;4965676;28;20221;-67
2023/06/22 10:00:44;;;;;;;7.23;6.53;;;;;;;28.00;96.35;96920.22;4951491;28;20392;-67
2023/06/22 10:03:13;;;;;;;7.43;6.73;;;;;;;28.06;93.39;96920.09;4960106;28;20236;-68
2023/06/22 10:05:41;;;;;;;7.77;6.50;;;;;;;27.98;93.08;96908.81;4915433;28;21572;-67
2023/06/22 10:08:12;;;;;;;6.97;6.27;;;;;;;28.11;96.17;96915.34;4964684;28;20739;-67
2023/06/22 10:10:39;;;;;;;7.30;6.60;;;;;;;28.30;97.40;96896.19;4948293;28;20579;-67
2023/06/22 10:13:09;;;;;;;6.30;5.80;;;;;;;28.50;95.89;96906.91;4972266;28;20257;-69
2023/06/22 10:15:37;;;;;;;7.20;6.60;;;;;;;28.49;94.03;96906.09;4952637;28;20510;-67
2023/06/22 10:18:05;;;;;;;7.37;6.60;;;;;;;28.47;95.14;96894.69;4968749;28;20237;-67
2023/06/22 10:20:34;;;;;;;9.23;6.07;;;;;;;28.77;97.66;96897.00;4962120;28;20225;-68
2023/06/22 10:23:02;;;;;;;5.87;5.47;;;;;;;29.09;96.09;96898.69;4920644;28;20763;-67
2023/06/22 10:25:30;;;;;;;6.77;6.13;;;;;;;29.15;91.42;96899.34;4947873;28;20916;-67
2023/06/22 10:27:58;;;;;;;7.20;6.23;;;;;;;29.37;91.43;96898.53;4973413;28;20206;-67
2023/06/22 10:30:26;;;;;;;6.87;5.83;;;;;;;29.50;89.13;96890.56;4961368;28;20704;-67
2023/06/22 10:32:53;;;;;;;8.20;6.17;;;;;;;29.31;86.83;96891.56;4956271;28;20218;-68
2023/06/22 10:35:21;;;;;;;6.87;6.13;;;;;;;29.31;85.47;96884.19;4968672;28;20202;-68
2023/06/22 10:37:50;;;;;;;7.33;5.80;;;;;;;29.40;78.82;96878.81;4918970;28;20562;-67
2023/06/22 10:40:18;;;;;;;6.37;5.83;;;;;;;29.16;83.67;96874.50;4950752;28;20218;-67
2023/06/22 10:42:46;;;;;;;6.30;5.90;;;;;;;29.39;83.11;96870.91;4965618;28;20209;-66
2023/06/22 10:45:14;;;;;;;6.50;5.90;;;;;;;29.38;84.81;96864.66;4971238;28;20261;-68
2023/06/22 10:47:42;;;;;;;6.80;6.30;;;;;;;29.39;84.77;96852.63;4958159;28;20214;-67
2023/06/22 10:50:11;;;;;;;6.33;5.73;;;;;;;29.71;84.68;96858.84;4975153;28;20740;-67
2023/06/22 10:52:39;;;;;;;11.77;6.67;;;;;;;29.97;82.77;96858.09;4909469;28;20878;-67
2023/06/22 10:55:09;;;;;;;6.77;6.07;;;;;;;30.01;79.03;96850.09;4971720;28;20684;-68
2023/06/22 10:57:38;;;;;;;6.73;6.00;;;;;;;30.02;75.70;96849.75;4950195;28;20379;-67
2023/06/22 11:00:11;;;;;;;6.30;5.70;;;;;;;30.13;80.99;96835.81;4974958;28;20198;-67
2023/06/22 11:02:38;;;;;;;8.70;5.93;;;;;;;30.14;81.40;96831.97;4963620;28;20341;-69
2023/06/22 11:05:07;;;;;;;6.83;6.27;;;;;;;30.17;78.39;96825.84;4955652;28;20331;-67
2023/06/22 11:07:35;;;;;;;6.43;5.63;;;;;;;30.39;82.77;96822.16;4916679;28;22223;-68
2023/06/22 11:10:03;;;;;;;8.73;6.03;;;;;;;30.58;76.74;96823.72;4969167;28;20206;-66
2023/06/22 11:12:32;;;;;;;6.43;5.80;;;;;;;30.66;75.59;96825.66;4944740;28;20582;-68
2023/06/22 11:15:00;;;;;;;8.00;5.73;;;;;;;30.64;76.52;96818.94;4975453;28;20221;-67
2023/06/22 11:17:28;;;;;;;6.20;5.70;;;;;;;30.77;68.14;96820.66;4968229;28;20776;-67
2023/06/22 11:19:55;;;;;;;7.57;5.97;;;;;;;30.87;70.62;96814.03;4955433;28;20297;-69
2023/06/22 11:22:23;;;;;;;5.33;4.93;;;;;;;31.00;70.39;96807.56;4961269;28;20297;-67